sensor_id;sensor_type;location;lat;lon;timestamp;P1;durP1;ratioP1;P2;durP2;ratioP2
18732;SDS011;9495;51.210;2.934;2023-07-20T00:00:16;6.68;;;2.75;;
18732;SDS011;9495;51.210;2.934;2023-07-20T00:02:45;5.80;;;2.95;;
18732;SDS011;9495;51.210;2.934;2023-07-20T00:05:13;5.32;;;3.00;;
18732;SDS011;9495;51.210;2.934;2023-07-20T00:07:44;6.35;;;3.08;;
18732;SDS011;9495;51.210;2.934;2023-07-20T00:10:13;4.50;;;3.05;;
18732;SDS011;9495;51.210;2.934;2023-07-20T00:12:41;7.47;;;3.35;;
18732;SDS011;9495;51.210;2.934;2023-07-20T00:15:15;5.15;;;3.20;;
18732;SDS011;9495;51.210;2.934;2023-07-20T00:17:44;9.02;;;3.60;;
18732;SDS011;9495;51.210;2.934;2023-07-20T00:20:12;5.60;;;3.47;;
18732;SDS011;9495;51.210;2.934;2023-07-20T00:22:41;4.70;;;2.80;;
18732;SDS011;9495;51.210;2.934;2023-07-20T00:25:09;4.68;;;3.40;;
18732;SDS011;9495;51.210;2.934;2023-07-20T00:27:38;5.80;;;3.30;;
18732;SDS011;9495;51.210;2.934;2023-07-20T00:30:07;4.85;;;3.10;;
18732;SDS011;9495;51.210;2.934;2023-07-20T00:32:37;6.38;;;3.00;;
18732;SDS011;9495;51.210;2.934;2023-07-20T00:35:06;6.35;;;3.25;;
18732;SDS011;9495;51.210;2.934;2023-07-20T00:37:34;5.28;;;3.25;;
18732;SDS011;9495;51.210;2.934;2023-07-20T00:40:03;7.28;;;3.25;;
18732;SDS011;9495;51.210;2.934;2023-07-20T00:42:33;5.53;;;2.97;;
18732;SDS011;9495;51.210;2.934;2023-07-20T00:45:02;4.35;;;2.92;;
18732;SDS011;9495;51.210;2.934;2023-07-20T00:47:31;3.97;;;2.50;;
18732;SDS011;9495;51.210;2.934;2023-07-20T00:50:02;3.53;;;2.83;;
18732;SDS011;9495;51.210;2.934;2023-07-20T00:52:31;9.43;;;2.83;;
18732;SDS011;9495;51.210;2.934;2023-07-20T00:55:01;6.45;;;3.03;;
18732;SDS011;9495;51.210;2.934;2023-07-20T00:57:30;5.32;;;3.10;;
18732;SDS011;9495;51.210;2.934;2023-07-20T00:59:59;6.00;;;3.10;;
18732;SDS011;9495;51.210;2.934;2023-07-20T01:02:28;5.38;;;2.85;;
18732;SDS011;9495;51.210;2.934;2023-07-20T01:04:56;4.70;;;3.13;;
18732;SDS011;9495;51.210;2.934;2023-07-20T01:07:28;4.82;;;3.20;;
18732;SDS011;9495;51.210;2.934;2023-07-20T01:10:02;4.97;;;3.10;;
18732;SDS011;9495;51.210;2.934;2023-07-20T01:12:40;10.63;;;3.38;;
18732;SDS011;9495;51.210;2.934;2023-07-20T01:15:10;5.28;;;3.05;;
18732;SDS011;9495;51.210;2.934;2023-07-20T01:17:39;5.85;;;2.90;;
18732;SDS011;9495;51.210;2.934;2023-07-20T01:20:08;5.93;;;2.90;;
18732;SDS011;9495;51.210;2.934;2023-07-20T01:22:47;4.10;;;2.97;;
18732;SDS011;9495;51.210;2.934;2023-07-20T01:25:51;5.00;;;2.95;;
18732;SDS011;9495;51.210;2.934;2023-07-20T01:28:57;4.25;;;2.40;;
18732;SDS011;9495;51.210;2.934;2023-07-20T01:31:41;5.63;;;2.40;;
18732;SDS011;9495;51.210;2.934;2023-07-20T01:34:12;2.95;;;2.65;;
18732;SDS011;9495;51.210;2.934;2023-07-20T01:36:45;6.00;;;2.65;;
18732;SDS011;9495;51.210;2.934;2023-07-20T01:39:15;5.78;;;2.08;;
18732;SDS011;9495;51.210;2.934;2023-07-20T01:41:44;5.65;;;2.40;;
18732;SDS011;9495;51.210;2.934;2023-07-20T01:44:13;4.68;;;2.30;;
18732;SDS011;9495;51.210;2.934;2023-07-20T01:46:43;5.80;;;2.40;;
18732;SDS011;9495;51.210;2.934;2023-07-20T01:49:11;6.47;;;2.78;;
18732;SDS011;9495;51.210;2.934;2023-07-20T01:51:40;4.78;;;2.53;;
18732;SDS011;9495;51.210;2.934;2023-07-20T01:54:08;3.67;;;2.47;;
18732;SDS011;9495;51.210;2.934;2023-07-20T01:56:37;3.17;;;2.40;;
18732;SDS011;9495;51.210;2.934;2023-07-20T01:59:06;5.57;;;2.38;;
18732;SDS011;9495;51.210;2.934;2023-07-20T02:01:34;6.18;;;2.25;;
18732;SDS011;9495;51.210;2.934;2023-07-20T02:04:04;5.40;;;2.60;;
18732;SDS011;9495;51.210;2.934;2023-07-20T02:06:33;4.45;;;2.40;;
18732;SDS011;9495;51.210;2.934;2023-07-20T02:09:01;3.58;;;2.60;;
18732;SDS011;9495;51.210;2.934;2023-07-20T02:11:30;8.18;;;2.75;;
18732;SDS011;9495;51.210;2.934;2023-07-20T02:13:58;5.53;;;2.88;;
18732;SDS011;9495;51.210;2.934;2023-07-20T02:16:27;4.28;;;2.45;;
18732;SDS011;9495;51.210;2.934;2023-07-20T02:18:56;3.65;;;1.92;;
18732;SDS011;9495;51.210;2.934;2023-07-20T02:21:26;2.88;;;2.38;;
18732;SDS011;9495;51.210;2.934;2023-07-20T02:23:54;5.05;;;2.40;;
18732;SDS011;9495;51.210;2.934;2023-07-20T02:26:22;3.17;;;2.45;;
18732;SDS011;9495;51.210;2.934;2023-07-20T02:28:51;2.67;;;2.08;;
18732;SDS011;9495;51.210;2.934;2023-07-20T02:31:19;3.42;;;2.30;;
18732;SDS011;9495;51.210;2.934;2023-07-20T02:33:48;4.82;;;2.40;;
18732;SDS011;9495;51.210;2.934;2023-07-20T02:36:17;4.90;;;2.60;;
18732;SDS011;9495;51.210;2.934;2023-07-20T02:38:47;5.32;;;2.50;;
18732;SDS011;9495;51.210;2.934;2023-07-20T02:41:15;5.97;;;2.30;;
18732;SDS011;9495;51.210;2.934;2023-07-20T02:43:44;2.58;;;2.17;;
18732;SDS011;9495;51.210;2.934;2023-07-20T02:46:13;2.70;;;2.08;;
18732;SDS011;9495;51.210;2.934;2023-07-20T02:48:41;4.20;;;2.40;;
18732;SDS011;9495;51.210;2.934;2023-07-20T02:51:10;3.58;;;2.25;;
18732;SDS011;9495;51.210;2.934;2023-07-20T02:53:39;3.45;;;2.40;;
18732;SDS011;9495;51.210;2.934;2023-07-20T02:56:09;4.30;;;2.10;;
18732;SDS011;9495;51.210;2.934;2023-07-20T02:58:39;3.25;;;2.33;;
18732;SDS011;9495;51.210;2.934;2023-07-20T03:01:09;3.65;;;2.40;;
18732;SDS011;9495;51.210;2.934;2023-07-20T03:03:39;4.10;;;2.40;;
18732;SDS011;9495;51.210;2.934;2023-07-20T03:06:07;3.88;;;2.17;;
18732;SDS011;9495;51.210;2.934;2023-07-20T03:08:36;2.63;;;2.13;;
18732;SDS011;9495;51.210;2.934;2023-07-20T03:11:05;3.17;;;2.10;;
18732;SDS011;9495;51.210;2.934;2023-07-20T03:13:34;3.55;;;2.20;;
18732;SDS011;9495;51.210;2.934;2023-07-20T03:16:03;2.72;;;2.40;;
18732;SDS011;9495;51.210;2.934;2023-07-20T03:18:31;2.53;;;2.33;;
18732;SDS011;9495;51.210;2.934;2023-07-20T03:21:00;2.42;;;2.13;;
18732;SDS011;9495;51.210;2.934;2023-07-20T03:23:29;4.93;;;2.38;;
18732;SDS011;9495;51.210;2.934;2023-07-20T03:25:57;2.70;;;2.10;;
18732;SDS011;9495;51.210;2.934;2023-07-20T03:28:26;3.67;;;2.67;;
18732;SDS011;9495;51.210;2.934;2023-07-20T03:30:56;3.10;;;2.28;;
18732;SDS011;9495;51.210;2.934;2023-07-20T03:33:25;3.17;;;2.38;;
18732;SDS011;9495;51.210;2.934;2023-07-20T03:35:55;3.42;;;2.28;;
18732;SDS011;9495;51.210;2.934;2023-07-20T03:38:24;3.63;;;2.28;;
18732;SDS011;9495;51.210;2.934;2023-07-20T03:40:54;2.70;;;2.10;;
18732;SDS011;9495;51.210;2.934;2023-07-20T03:43:24;4.05;;;2.20;;
18732;SDS011;9495;51.210;2.934;2023-07-20T03:45:53;3.65;;;2.25;;
18732;SDS011;9495;51.210;2.934;2023-07-20T03:48:24;5.05;;;2.40;;
18732;SDS011;9495;51.210;2.934;2023-07-20T03:50:53;3.50;;;2.22;;
18732;SDS011;9495;51.210;2.934;2023-07-20T03:53:22;3.50;;;2.72;;
18732;SDS011;9495;51.210;2.934;2023-07-20T03:55:51;3.42;;;2.28;;
18732;SDS011;9495;51.210;2.934;2023-07-20T03:58:20;5.63;;;2.42;;
18732;SDS011;9495;51.210;2.934;2023-07-20T04:00:49;5.20;;;2.45;;
18732;SDS011;9495;51.210;2.934;2023-07-20T04:03:18;7.30;;;2.45;;
18732;SDS011;9495;51.210;2.934;2023-07-20T04:05:48;2.53;;;2.33;;
18732;SDS011;9495;51.210;2.934;2023-07-20T04:08:17;2.88;;;2.40;;
18732;SDS011;9495;51.210;2.934;2023-07-20T04:10:47;2.55;;;1.90;;
18732;SDS011;9495;51.210;2.934;2023-07-20T04:13:15;4.63;;;2.40;;
18732;SDS011;9495;51.210;2.934;2023-07-20T04:15:44;4.93;;;2.22;;
18732;SDS011;9495;51.210;2.934;2023-07-20T04:18:13;2.47;;;2.17;;
18732;SDS011;9495;51.210;2.934;2023-07-20T04:20:41;4.63;;;2.40;;
18732;SDS011;9495;51.210;2.934;2023-07-20T04:23:11;5.75;;;2.53;;
18732;SDS011;9495;51.210;2.934;2023-07-20T04:25:40;3.15;;;2.00;;
18732;SDS011;9495;51.210;2.934;2023-07-20T04:28:08;3.65;;;2.42;;
18732;SDS011;9495;51.210;2.934;2023-07-20T04:30:37;4.82;;;2.70;;
18732;SDS011;9495;51.210;2.934;2023-07-20T04:33:06;4.75;;;2.53;;
18732;SDS011;9495;51.210;2.934;2023-07-20T04:35:44;4.30;;;2.90;;
18732;SDS011;9495;51.210;2.934;2023-07-20T04:38:16;3.88;;;3.03;;
18732;SDS011;9495;51.210;2.934;2023-07-20T04:40:44;3.75;;;2.47;;
18732;SDS011;9495;51.210;2.934;2023-07-20T04:43:14;3.60;;;2.55;;
18732;SDS011;9495;51.210;2.934;2023-07-20T04:45:42;5.03;;;2.45;;
18732;SDS011;9495;51.210;2.934;2023-07-20T04:48:12;5.70;;;2.97;;
18732;SDS011;9495;51.210;2.934;2023-07-20T04:50:42;2.85;;;2.60;;
18732;SDS011;9495;51.210;2.934;2023-07-20T04:53:11;4.38;;;2.60;;
18732;SDS011;9495;51.210;2.934;2023-07-20T04:55:46;4.65;;;2.72;;
18732;SDS011;9495;51.210;2.934;2023-07-20T04:58:17;3.38;;;1.92;;
18732;SDS011;9495;51.210;2.934;2023-07-20T05:00:46;2.17;;;1.85;;
18732;SDS011;9495;51.210;2.934;2023-07-20T05:03:15;4.88;;;1.85;;
18732;SDS011;9495;51.210;2.934;2023-07-20T05:05:45;3.42;;;1.63;;
18732;SDS011;9495;51.210;2.934;2023-07-20T05:08:15;2.47;;;2.03;;
18732;SDS011;9495;51.210;2.934;2023-07-20T05:10:45;3.45;;;2.00;;
18732;SDS011;9495;51.210;2.934;2023-07-20T05:13:14;3.63;;;2.08;;
18732;SDS011;9495;51.210;2.934;2023-07-20T05:15:42;3.38;;;1.52;;
18732;SDS011;9495;51.210;2.934;2023-07-20T05:18:10;2.92;;;1.75;;
18732;SDS011;9495;51.210;2.934;2023-07-20T05:20:39;1.98;;;1.70;;
18732;SDS011;9495;51.210;2.934;2023-07-20T05:23:08;2.47;;;2.28;;
18732;SDS011;9495;51.210;2.934;2023-07-20T05:25:36;1.73;;;1.45;;
18732;SDS011;9495;51.210;2.934;2023-07-20T05:28:06;2.95;;;1.70;;
18732;SDS011;9495;51.210;2.934;2023-07-20T05:30:34;2.83;;;1.80;;
18732;SDS011;9495;51.210;2.934;2023-07-20T05:33:03;3.65;;;1.45;;
18732;SDS011;9495;51.210;2.934;2023-07-20T05:35:32;1.60;;;1.50;;
18732;SDS011;9495;51.210;2.934;2023-07-20T05:38:00;3.30;;;1.30;;
18732;SDS011;9495;51.210;2.934;2023-07-20T05:40:30;5.63;;;1.45;;
18732;SDS011;9495;51.210;2.934;2023-07-20T05:42:59;2.20;;;1.60;;
18732;SDS011;9495;51.210;2.934;2023-07-20T05:45:29;2.13;;;1.30;;
18732;SDS011;9495;51.210;2.934;2023-07-20T05:47:57;1.90;;;1.13;;
18732;SDS011;9495;51.210;2.934;2023-07-20T05:50:26;1.38;;;1.10;;
18732;SDS011;9495;51.210;2.934;2023-07-20T05:52:55;1.33;;;1.10;;
18732;SDS011;9495;51.210;2.934;2023-07-20T05:55:23;3.83;;;1.27;;
18732;SDS011;9495;51.210;2.934;2023-07-20T05:57:52;1.27;;;1.10;;
18732;SDS011;9495;51.210;2.934;2023-07-20T06:00:22;2.88;;;1.05;;
18732;SDS011;9495;51.210;2.934;2023-07-20T06:02:54;2.50;;;1.13;;
18732;SDS011;9495;51.210;2.934;2023-07-20T06:05:23;1.15;;;1.00;;
18732;SDS011;9495;51.210;2.934;2023-07-20T06:07:55;1.58;;;0.98;;
18732;SDS011;9495;51.210;2.934;2023-07-20T06:10:24;2.90;;;0.93;;
18732;SDS011;9495;51.210;2.934;2023-07-20T06:12:53;1.48;;;1.13;;
18732;SDS011;9495;51.210;2.934;2023-07-20T06:15:26;2.22;;;1.00;;
18732;SDS011;9495;51.210;2.934;2023-07-20T06:17:56;1.50;;;1.02;;
18732;SDS011;9495;51.210;2.934;2023-07-20T06:20:25;1.92;;;1.10;;
18732;SDS011;9495;51.210;2.934;2023-07-20T06:22:54;1.23;;;0.85;;
18732;SDS011;9495;51.210;2.934;2023-07-20T06:25:22;1.45;;;0.90;;
18732;SDS011;9495;51.210;2.934;2023-07-20T06:27:51;0.80;;;0.80;;
18732;SDS011;9495;51.210;2.934;2023-07-20T06:30:20;2.55;;;0.93;;
18732;SDS011;9495;51.210;2.934;2023-07-20T06:32:49;2.92;;;0.90;;
18732;SDS011;9495;51.210;2.934;2023-07-20T06:35:19;1.55;;;0.75;;
18732;SDS011;9495;51.210;2.934;2023-07-20T06:37:47;1.48;;;0.70;;
18732;SDS011;9495;51.210;2.934;2023-07-20T06:40:16;1.85;;;0.90;;
18732;SDS011;9495;51.210;2.934;2023-07-20T06:42:47;0.63;;;0.63;;
18732;SDS011;9495;51.210;2.934;2023-07-20T06:45:19;1.05;;;0.70;;
18732;SDS011;9495;51.210;2.934;2023-07-20T06:47:48;0.80;;;0.80;;
18732;SDS011;9495;51.210;2.934;2023-07-20T06:50:16;0.70;;;0.65;;
18732;SDS011;9495;51.210;2.934;2023-07-20T06:52:46;1.50;;;0.95;;
18732;SDS011;9495;51.210;2.934;2023-07-20T06:55:14;3.00;;;0.60;;
18732;SDS011;9495;51.210;2.934;2023-07-20T06:57:49;1.95;;;0.70;;
18732;SDS011;9495;51.210;2.934;2023-07-20T07:00:24;1.63;;;0.57;;
18732;SDS011;9495;51.210;2.934;2023-07-20T07:02:52;1.33;;;0.73;;
18732;SDS011;9495;51.210;2.934;2023-07-20T07:05:22;1.58;;;0.88;;
18732;SDS011;9495;51.210;2.934;2023-07-20T07:08:00;1.38;;;0.80;;
18732;SDS011;9495;51.210;2.934;2023-07-20T07:10:29;1.70;;;0.70;;
18732;SDS011;9495;51.210;2.934;2023-07-20T07:12:57;1.40;;;0.88;;
18732;SDS011;9495;51.210;2.934;2023-07-20T07:15:26;0.70;;;0.70;;
18732;SDS011;9495;51.210;2.934;2023-07-20T07:17:55;0.77;;;0.60;;
18732;SDS011;9495;51.210;2.934;2023-07-20T07:20:25;0.60;;;0.60;;
18732;SDS011;9495;51.210;2.934;2023-07-20T07:22:55;1.95;;;0.63;;
18732;SDS011;9495;51.210;2.934;2023-07-20T07:25:23;1.15;;;0.60;;
18732;SDS011;9495;51.210;2.934;2023-07-20T07:27:53;1.45;;;0.85;;
18732;SDS011;9495;51.210;2.934;2023-07-20T07:30:23;1.02;;;0.70;;
18732;SDS011;9495;51.210;2.934;2023-07-20T07:32:51;2.15;;;0.80;;
18732;SDS011;9495;51.210;2.934;2023-07-20T07:35:20;1.55;;;0.80;;
18732;SDS011;9495;51.210;2.934;2023-07-20T07:37:50;1.27;;;0.80;;
18732;SDS011;9495;51.210;2.934;2023-07-20T07:40:38;0.70;;;0.70;;
18732;SDS011;9495;51.210;2.934;2023-07-20T07:43:07;1.10;;;0.68;;
18732;SDS011;9495;51.210;2.934;2023-07-20T07:45:36;1.70;;;0.80;;
18732;SDS011;9495;51.210;2.934;2023-07-20T07:48:05;1.83;;;0.70;;
18732;SDS011;9495;51.210;2.934;2023-07-20T07:50:34;1.00;;;0.90;;
18732;SDS011;9495;51.210;2.934;2023-07-20T07:53:04;0.90;;;0.70;;
18732;SDS011;9495;51.210;2.934;2023-07-20T07:55:32;1.65;;;0.65;;
18732;SDS011;9495;51.210;2.934;2023-07-20T07:58:01;1.05;;;0.68;;
18732;SDS011;9495;51.210;2.934;2023-07-20T08:00:29;2.55;;;0.75;;
18732;SDS011;9495;51.210;2.934;2023-07-20T08:02:58;5.55;;;0.90;;
18732;SDS011;9495;51.210;2.934;2023-07-20T08:05:27;3.47;;;0.70;;
18732;SDS011;9495;51.210;2.934;2023-07-20T08:07:55;1.00;;;0.80;;
18732;SDS011;9495;51.210;2.934;2023-07-20T08:10:25;0.77;;;0.77;;
18732;SDS011;9495;51.210;2.934;2023-07-20T08:12:54;1.10;;;0.80;;
18732;SDS011;9495;51.210;2.934;2023-07-20T08:15:22;1.58;;;0.70;;
18732;SDS011;9495;51.210;2.934;2023-07-20T08:17:51;0.60;;;0.60;;
18732;SDS011;9495;51.210;2.934;2023-07-20T08:20:20;0.82;;;0.80;;
18732;SDS011;9495;51.210;2.934;2023-07-20T08:22:53;1.02;;;0.80;;
18732;SDS011;9495;51.210;2.934;2023-07-20T08:25:22;1.17;;;0.65;;
18732;SDS011;9495;51.210;2.934;2023-07-20T08:27:52;3.83;;;0.80;;
18732;SDS011;9495;51.210;2.934;2023-07-20T08:30:21;2.47;;;0.50;;
18732;SDS011;9495;51.210;2.934;2023-07-20T08:32:50;0.60;;;0.60;;
18732;SDS011;9495;51.210;2.934;2023-07-20T08:35:18;1.15;;;0.75;;
18732;SDS011;9495;51.210;2.934;2023-07-20T08:37:48;1.63;;;0.77;;
18732;SDS011;9495;51.210;2.934;2023-07-20T08:40:17;0.60;;;0.50;;
18732;SDS011;9495;51.210;2.934;2023-07-20T08:42:46;0.80;;;0.60;;
18732;SDS011;9495;51.210;2.934;2023-07-20T08:45:17;1.50;;;0.75;;
18732;SDS011;9495;51.210;2.934;2023-07-20T08:47:46;1.45;;;0.80;;
18732;SDS011;9495;51.210;2.934;2023-07-20T08:50:16;1.38;;;0.73;;
18732;SDS011;9495;51.210;2.934;2023-07-20T08:52:45;2.20;;;0.60;;
18732;SDS011;9495;51.210;2.934;2023-07-20T08:55:14;0.73;;;0.40;;
18732;SDS011;9495;51.210;2.934;2023-07-20T08:57:43;1.27;;;0.70;;
18732;SDS011;9495;51.210;2.934;2023-07-20T09:00:14;1.40;;;0.45;;
18732;SDS011;9495;51.210;2.934;2023-07-20T09:02:45;1.33;;;0.80;;
18732;SDS011;9495;51.210;2.934;2023-07-20T09:05:15;0.80;;;0.60;;
18732;SDS011;9495;51.210;2.934;2023-07-20T09:07:44;1.10;;;0.70;;
18732;SDS011;9495;51.210;2.934;2023-07-20T09:10:12;1.42;;;1.00;;
18732;SDS011;9495;51.210;2.934;2023-07-20T09:12:42;1.15;;;0.80;;
18732;SDS011;9495;51.210;2.934;2023-07-20T09:15:11;1.98;;;0.70;;
18732;SDS011;9495;51.210;2.934;2023-07-20T09:17:43;1.80;;;0.80;;
18732;SDS011;9495;51.210;2.934;2023-07-20T09:20:14;0.50;;;0.50;;
18732;SDS011;9495;51.210;2.934;2023-07-20T09:22:48;2.28;;;1.00;;
18732;SDS011;9495;51.210;2.934;2023-07-20T09:25:19;1.17;;;0.80;;
18732;SDS011;9495;51.210;2.934;2023-07-20T09:27:50;1.25;;;0.90;;
18732;SDS011;9495;51.210;2.934;2023-07-20T09:30:21;1.17;;;0.75;;
18732;SDS011;9495;51.210;2.934;2023-07-20T09:32:57;1.73;;;0.65;;
18732;SDS011;9495;51.210;2.934;2023-07-20T09:35:26;1.05;;;0.70;;
18732;SDS011;9495;51.210;2.934;2023-07-20T09:38:06;0.80;;;0.70;;
18732;SDS011;9495;51.210;2.934;2023-07-20T09:40:38;1.05;;;0.80;;
18732;SDS011;9495;51.210;2.934;2023-07-20T09:43:11;0.98;;;0.90;;
18732;SDS011;9495;51.210;2.934;2023-07-20T09:45:42;1.35;;;0.77;;
18732;SDS011;9495;51.210;2.934;2023-07-20T09:48:16;3.22;;;1.00;;
18732;SDS011;9495;51.210;2.934;2023-07-20T09:50:51;1.27;;;1.10;;
18732;SDS011;9495;51.210;2.934;2023-07-20T09:53:20;1.42;;;1.02;;
18732;SDS011;9495;51.210;2.934;2023-07-20T09:55:52;1.98;;;1.10;;
18732;SDS011;9495;51.210;2.934;2023-07-20T09:58:21;0.82;;;0.82;;
18732;SDS011;9495;51.210;2.934;2023-07-20T10:00:50;1.17;;;0.95;;
18732;SDS011;9495;51.210;2.934;2023-07-20T10:03:22;2.65;;;1.27;;
18732;SDS011;9495;51.210;2.934;2023-07-20T10:06:00;2.60;;;0.88;;
18732;SDS011;9495;51.210;2.934;2023-07-20T10:08:34;1.05;;;0.80;;
18732;SDS011;9495;51.210;2.934;2023-07-20T10:11:09;1.27;;;1.00;;
18732;SDS011;9495;51.210;2.934;2023-07-20T10:13:39;4.10;;;1.02;;
18732;SDS011;9495;51.210;2.934;2023-07-20T10:16:12;1.38;;;0.90;;
18732;SDS011;9495;51.210;2.934;2023-07-20T10:18:46;3.10;;;1.10;;
18732;SDS011;9495;51.210;2.934;2023-07-20T10:21:18;0.77;;;0.70;;
18732;SDS011;9495;51.210;2.934;2023-07-20T10:23:52;1.35;;;1.00;;
18732;SDS011;9495;51.210;2.934;2023-07-20T10:26:24;0.93;;;0.93;;
18732;SDS011;9495;51.210;2.934;2023-07-20T10:28:53;4.10;;;1.55;;
18732;SDS011;9495;51.210;2.934;2023-07-20T10:31:23;2.13;;;1.08;;
18732;SDS011;9495;51.210;2.934;2023-07-20T10:33:57;1.50;;;0.90;;
18732;SDS011;9495;51.210;2.934;2023-07-20T10:36:26;1.17;;;1.00;;
18732;SDS011;9495;51.210;2.934;2023-07-20T10:38:57;1.13;;;0.88;;
18732;SDS011;9495;51.210;2.934;2023-07-20T10:41:28;0.70;;;0.70;;
18732;SDS011;9495;51.210;2.934;2023-07-20T10:43:58;1.17;;;1.08;;
18732;SDS011;9495;51.210;2.934;2023-07-20T10:46:34;1.38;;;1.27;;
18732;SDS011;9495;51.210;2.934;2023-07-20T10:49:10;2.45;;;0.93;;
18732;SDS011;9495;51.210;2.934;2023-07-20T10:51:39;1.40;;;0.90;;
18732;SDS011;9495;51.210;2.934;2023-07-20T10:54:09;1.00;;;0.90;;
18732;SDS011;9495;51.210;2.934;2023-07-20T11:00:07;1.95;;;1.00;;
18732;SDS011;9495;51.210;2.934;2023-07-20T11:02:43;1.08;;;0.80;;
18732;SDS011;9495;51.210;2.934;2023-07-20T11:05:37;1.50;;;0.77;;
18732;SDS011;9495;51.210;2.934;2023-07-20T11:08:09;1.25;;;0.90;;
18732;SDS011;9495;51.210;2.934;2023-07-20T11:10:39;2.40;;;0.93;;
18732;SDS011;9495;51.210;2.934;2023-07-20T11:13:17;1.40;;;1.00;;
18732;SDS011;9495;51.210;2.934;2023-07-20T11:16:02;1.33;;;0.90;;
18732;SDS011;9495;51.210;2.934;2023-07-20T11:18:34;2.53;;;0.90;;
18732;SDS011;9495;51.210;2.934;2023-07-20T11:21:09;0.90;;;0.80;;
18732;SDS011;9495;51.210;2.934;2023-07-20T11:23:38;1.15;;;0.90;;
18732;SDS011;9495;51.210;2.934;2023-07-20T11:26:08;1.73;;;1.10;;
18732;SDS011;9495;51.210;2.934;2023-07-20T11:28:37;0.90;;;0.90;;
18732;SDS011;9495;51.210;2.934;2023-07-20T11:31:06;0.90;;;0.90;;
18732;SDS011;9495;51.210;2.934;2023-07-20T11:33:34;1.77;;;1.00;;
18732;SDS011;9495;51.210;2.934;2023-07-20T11:36:03;1.83;;;0.82;;
18732;SDS011;9495;51.210;2.934;2023-07-20T11:38:54;1.73;;;0.90;;
18732;SDS011;9495;51.210;2.934;2023-07-20T11:41:23;2.20;;;1.00;;
18732;SDS011;9495;51.210;2.934;2023-07-20T11:43:53;0.90;;;0.90;;
18732;SDS011;9495;51.210;2.934;2023-07-20T11:46:22;0.90;;;0.80;;
18732;SDS011;9495;51.210;2.934;2023-07-20T11:48:55;1.20;;;1.10;;
18732;SDS011;9495;51.210;2.934;2023-07-20T11:51:25;1.02;;;0.90;;
18732;SDS011;9495;51.210;2.934;2023-07-20T11:53:57;2.60;;;0.95;;
18732;SDS011;9495;51.210;2.934;2023-07-20T11:56:26;0.90;;;0.90;;
18732;SDS011;9495;51.210;2.934;2023-07-20T11:58:55;1.65;;;1.30;;
18732;SDS011;9495;51.210;2.934;2023-07-20T12:01:26;1.63;;;1.05;;
18732;SDS011;9495;51.210;2.934;2023-07-20T12:03:56;2.15;;;1.20;;
18732;SDS011;9495;51.210;2.934;2023-07-20T12:06:25;2.10;;;1.10;;
18732;SDS011;9495;51.210;2.934;2023-07-20T12:08:57;1.20;;;1.10;;
18732;SDS011;9495;51.210;2.934;2023-07-20T12:11:33;4.70;;;1.00;;
18732;SDS011;9495;51.210;2.934;2023-07-20T12:14:02;1.08;;;0.93;;
18732;SDS011;9495;51.210;2.934;2023-07-20T12:16:42;2.33;;;0.90;;
18732;SDS011;9495;51.210;2.934;2023-07-20T12:19:11;1.63;;;1.00;;
18732;SDS011;9495;51.210;2.934;2023-07-20T12:21:41;1.10;;;1.00;;
18732;SDS011;9495;51.210;2.934;2023-07-20T12:24:11;1.25;;;0.90;;
18732;SDS011;9495;51.210;2.934;2023-07-20T12:26:40;4.38;;;1.20;;
18732;SDS011;9495;51.210;2.934;2023-07-20T12:29:08;4.72;;;1.00;;
18732;SDS011;9495;51.210;2.934;2023-07-20T12:31:37;4.35;;;0.98;;
18732;SDS011;9495;51.210;2.934;2023-07-20T12:34:05;2.20;;;0.90;;
18732;SDS011;9495;51.210;2.934;2023-07-20T12:36:35;1.67;;;0.80;;
18732;SDS011;9495;51.210;2.934;2023-07-20T12:39:04;2.33;;;0.80;;
18732;SDS011;9495;51.210;2.934;2023-07-20T12:41:34;1.48;;;1.00;;
18732;SDS011;9495;51.210;2.934;2023-07-20T12:44:02;1.75;;;0.90;;
18732;SDS011;9495;51.210;2.934;2023-07-20T12:46:32;2.53;;;0.77;;
18732;SDS011;9495;51.210;2.934;2023-07-20T12:49:03;7.07;;;1.35;;
18732;SDS011;9495;51.210;2.934;2023-07-20T12:51:31;1.40;;;0.90;;
18732;SDS011;9495;51.210;2.934;2023-07-20T12:54:00;1.17;;;0.80;;
18732;SDS011;9495;51.210;2.934;2023-07-20T12:56:29;1.40;;;0.80;;
18732;SDS011;9495;51.210;2.934;2023-07-20T12:59:02;2.15;;;0.80;;
18732;SDS011;9495;51.210;2.934;2023-07-20T13:01:32;0.80;;;0.80;;
18732;SDS011;9495;51.210;2.934;2023-07-20T13:04:00;2.33;;;1.02;;
18732;SDS011;9495;51.210;2.934;2023-07-20T13:06:33;0.82;;;0.77;;
18732;SDS011;9495;51.210;2.934;2023-07-20T13:09:03;1.63;;;0.90;;
18732;SDS011;9495;51.210;2.934;2023-07-20T13:11:31;1.10;;;0.75;;
18732;SDS011;9495;51.210;2.934;2023-07-20T13:14:00;1.60;;;0.98;;
18732;SDS011;9495;51.210;2.934;2023-07-20T13:16:29;1.67;;;0.90;;
18732;SDS011;9495;51.210;2.934;2023-07-20T13:18:58;1.80;;;1.35;;
18732;SDS011;9495;51.210;2.934;2023-07-20T13:21:27;2.05;;;1.10;;
18732;SDS011;9495;51.210;2.934;2023-07-20T13:23:55;2.97;;;1.17;;
18732;SDS011;9495;51.210;2.934;2023-07-20T13:26:24;1.70;;;0.90;;
18732;SDS011;9495;51.210;2.934;2023-07-20T13:28:52;1.20;;;1.10;;
18732;SDS011;9495;51.210;2.934;2023-07-20T13:31:22;1.40;;;1.00;;
18732;SDS011;9495;51.210;2.934;2023-07-20T13:33:51;1.40;;;0.90;;
18732;SDS011;9495;51.210;2.934;2023-07-20T13:36:25;1.10;;;0.85;;
18732;SDS011;9495;51.210;2.934;2023-07-20T13:38:56;2.00;;;0.90;;
18732;SDS011;9495;51.210;2.934;2023-07-20T13:41:25;1.67;;;0.98;;
18732;SDS011;9495;51.210;2.934;2023-07-20T13:43:56;2.20;;;1.02;;
18732;SDS011;9495;51.210;2.934;2023-07-20T13:46:25;1.30;;;0.90;;
18732;SDS011;9495;51.210;2.934;2023-07-20T13:48:57;1.60;;;1.00;;
18732;SDS011;9495;51.210;2.934;2023-07-20T13:51:26;1.00;;;1.00;;
18732;SDS011;9495;51.210;2.934;2023-07-20T13:53:54;1.00;;;0.88;;
18732;SDS011;9495;51.210;2.934;2023-07-20T13:56:25;1.98;;;1.00;;
18732;SDS011;9495;51.210;2.934;2023-07-20T13:58:53;2.20;;;1.10;;
18732;SDS011;9495;51.210;2.934;2023-07-20T14:01:26;5.00;;;1.27;;
18732;SDS011;9495;51.210;2.934;2023-07-20T14:03:55;1.85;;;1.13;;
18732;SDS011;9495;51.210;2.934;2023-07-20T14:06:31;2.35;;;1.17;;
18732;SDS011;9495;51.210;2.934;2023-07-20T14:09:00;6.78;;;1.25;;
18732;SDS011;9495;51.210;2.934;2023-07-20T14:11:30;1.40;;;1.05;;
18732;SDS011;9495;51.210;2.934;2023-07-20T14:14:01;1.40;;;1.10;;
18732;SDS011;9495;51.210;2.934;2023-07-20T14:16:31;1.35;;;1.10;;
18732;SDS011;9495;51.210;2.934;2023-07-20T14:19:00;1.30;;;1.15;;
18732;SDS011;9495;51.210;2.934;2023-07-20T14:21:30;1.40;;;1.15;;
18732;SDS011;9495;51.210;2.934;2023-07-20T14:23:59;2.42;;;1.65;;
18732;SDS011;9495;51.210;2.934;2023-07-20T14:26:28;1.90;;;1.30;;
18732;SDS011;9495;51.210;2.934;2023-07-20T14:28:59;3.70;;;2.47;;
18732;SDS011;9495;51.210;2.934;2023-07-20T14:31:28;2.55;;;2.35;;
18732;SDS011;9495;51.210;2.934;2023-07-20T14:33:59;4.18;;;3.10;;
18732;SDS011;9495;51.210;2.934;2023-07-20T14:36:28;3.47;;;1.85;;
18732;SDS011;9495;51.210;2.934;2023-07-20T14:38:59;3.03;;;1.70;;
18732;SDS011;9495;51.210;2.934;2023-07-20T14:41:28;2.92;;;2.00;;
18732;SDS011;9495;51.210;2.934;2023-07-20T14:43:56;4.00;;;2.42;;
18732;SDS011;9495;51.210;2.934;2023-07-20T14:46:25;3.45;;;2.03;;
18732;SDS011;9495;51.210;2.934;2023-07-20T14:48:54;3.45;;;2.17;;
18732;SDS011;9495;51.210;2.934;2023-07-20T14:51:23;3.67;;;1.80;;
18732;SDS011;9495;51.210;2.934;2023-07-20T14:54:03;5.45;;;1.80;;
18732;SDS011;9495;51.210;2.934;2023-07-20T14:56:33;1.85;;;1.50;;
18732;SDS011;9495;51.210;2.934;2023-07-20T14:59:01;3.70;;;1.45;;
18732;SDS011;9495;51.210;2.934;2023-07-20T15:01:31;2.38;;;1.45;;
18732;SDS011;9495;51.210;2.934;2023-07-20T15:03:59;1.42;;;1.30;;
18732;SDS011;9495;51.210;2.934;2023-07-20T15:06:30;3.13;;;1.58;;
18732;SDS011;9495;51.210;2.934;2023-07-20T15:08:58;3.53;;;1.88;;
18732;SDS011;9495;51.210;2.934;2023-07-20T15:11:27;2.65;;;2.03;;
18732;SDS011;9495;51.210;2.934;2023-07-20T15:13:56;1.92;;;1.52;;
18732;SDS011;9495;51.210;2.934;2023-07-20T15:16:25;2.55;;;1.45;;
18732;SDS011;9495;51.210;2.934;2023-07-20T15:18:54;5.13;;;1.60;;
18732;SDS011;9495;51.210;2.934;2023-07-20T15:21:22;1.45;;;1.35;;